This is the latest recevied weather packets stored in our database for station/object KE8DDT-7. If no packets are shown the sender has not sent any weather packets the latest 10 day(s).
| Time | Temp. | Humidity | Pressure | Rain* | Wind** | Luminosity | Snow |
|---|---|---|---|---|---|---|---|
| 1778076193 | 9.44° C | 55% | 1003.8 hPa | 0 mm | - | 615 W/m² | - |
| 1778075893 | 9.44° C | 55% | 1003.7 hPa | 0 mm | - | 621 W/m² | - |
| 1778075596 | 9.44° C | 53% | 1003.6 hPa | 0 mm | - | 633 W/m² | - |
| 1778075293 | 9.44° C | 54% | 1003.6 hPa | 0 mm | - | 480 W/m² | - |
| 1778074993 | 9.44° C | 53% | 1003.6 hPa | 0 mm | - | 499 W/m² | - |
| 1778074693 | 9.44° C | 55% | 1003.5 hPa | 0 mm | - | 476 W/m² | - |
| 1778074393 | 8.89° C | 55% | 1003.6 hPa | 0 mm | - | 555 W/m² | - |
| 1778074093 | 8.89° C | 57% | 1003.6 hPa | 0 mm | - | 454 W/m² | - |
| 1778073793 | 8.89° C | 58% | 1003.6 hPa | 0 mm | - | 519 W/m² | - |
| 1778073493 | 8.89° C | 57% | 1003.4 hPa | 0 mm | - | 360 W/m² | - |
| 1778073193 | 8.89° C | 56% | 1003.4 hPa | 0 mm | - | 510 W/m² | - |
| 1778072610 | 8.33° C | 60% | 1003.2 hPa | 0 mm | - | 471 W/m² | - |
| 1778072310 | 8.33° C | 60% | 1003.2 hPa | 0 mm | - | 434 W/m² | - |
| 1778072010 | 8.33° C | 61% | 1003.1 hPa | 0 mm | - | 436 W/m² | - |
| 1778071710 | 7.78° C | 61% | 1003.1 hPa | 0 mm | - | 415 W/m² | - |
| 1778071410 | 7.78° C | 62% | 1003.1 hPa | 0 mm | - | 396 W/m² | - |
| 1778071110 | 7.22° C | 62% | 1003.1 hPa | 0 mm | - | 378 W/m² | - |
| 1778070810 | 7.22° C | 62% | 1002.9 hPa | 0 mm | - | 360 W/m² | - |
| 1778070487 | 6.67° C | 63% | 1002.9 hPa | 0 mm | - | 343 W/m² | - |
| 1778070125 | 6.67° C | 65% | 1002.8 hPa | 0 mm | - | 320 W/m² | - |
| 1778069461 | 6.11° C | 66% | 1002.6 hPa | 0 mm | - | 165 W/m² | - |
| 1778068878 | 6.11° C | 67% | 1002.4 hPa | 0 mm | - | 42 W/m² | - |
| 1778068578 | 6.11° C | 67% | 1002.5 hPa | 0 mm | - | 70 W/m² | - |
| 1778068278 | 6.11° C | 66% | 1002.5 hPa | 0 mm | - | 58 W/m² | - |
| 1778067978 | 6.11° C | 67% | 1002.5 hPa | 0 mm | - | 42 W/m² | - |
* Rain latest hour (hover to see other rain measurements)
** Current wind speed in m/s (hover to see current wind gust speed)